createdAt,value
2023-04-06T00:00:15.476Z,2.10
2023-04-06T00:02:38.924Z,2.10
2023-04-06T00:05:02.388Z,2.10
2023-04-06T00:07:26.261Z,2.10
2023-04-06T00:09:49.694Z,2.10
2023-04-06T00:12:13.190Z,2.10
2023-04-06T00:14:36.688Z,2.00
2023-04-06T00:17:01.522Z,2.00
2023-04-06T00:19:25.071Z,2.00
2023-04-06T00:21:48.480Z,2.00
2023-04-06T00:24:11.995Z,1.90
2023-04-06T00:26:35.455Z,1.90
2023-04-06T00:29:00.003Z,1.90
2023-04-06T00:31:23.832Z,1.90
2023-04-06T00:33:49.946Z,1.80
2023-04-06T00:36:13.470Z,1.80
2023-04-06T00:38:37.010Z,1.80
2023-04-06T00:41:00.507Z,1.80
2023-04-06T00:43:25.363Z,1.70
2023-04-06T00:45:49.094Z,1.70
2023-04-06T00:48:12.768Z,1.70
2023-04-06T00:50:38.001Z,1.50
2023-04-06T00:53:01.847Z,1.60
2023-04-06T00:55:26.072Z,1.60
2023-04-06T00:57:49.750Z,1.50
2023-04-06T01:00:15.561Z,1.60
2023-04-06T01:02:41.435Z,1.60
2023-04-06T01:05:07.308Z,1.50
2023-04-06T01:07:43.160Z,1.40
2023-04-06T01:10:12.206Z,1.40
2023-04-06T01:12:37.143Z,1.30
2023-04-06T01:15:04.787Z,1.40
2023-04-06T01:17:30.684Z,1.30
2023-04-06T01:20:02.023Z,1.30
2023-04-06T01:22:30.201Z,1.30
2023-04-06T01:24:57.709Z,1.40
2023-04-06T01:27:44.005Z,1.30
2023-04-06T01:30:20.822Z,1.30
2023-04-06T01:32:54.840Z,1.10
2023-04-06T01:35:30.550Z,1.10
2023-04-06T01:38:10.913Z,1.10
2023-04-06T01:40:35.399Z,1.10
2023-04-06T01:42:58.973Z,1.10
2023-04-06T01:45:29.657Z,1.00
2023-04-06T01:47:58.902Z,1.00
2023-04-06T01:50:24.158Z,1.00
2023-04-06T01:52:47.596Z,1.10
2023-04-06T01:55:12.520Z,1.00
2023-04-06T01:58:08.397Z,1.00
2023-04-06T02:00:35.378Z,1.00
2023-04-06T02:02:59.220Z,1.00
2023-04-06T02:05:25.634Z,1.00
2023-04-06T02:07:50.625Z,0.90
2023-04-06T02:10:20.215Z,0.90
2023-04-06T02:12:43.673Z,0.90
2023-04-06T02:15:14.203Z,1.00
2023-04-06T02:17:37.761Z,1.00
2023-04-06T02:20:01.629Z,0.90
2023-04-06T02:22:25.049Z,0.90
2023-04-06T02:24:48.604Z,0.80
2023-04-06T02:27:13.374Z,0.80
2023-04-06T02:29:36.832Z,0.70
2023-04-06T02:32:01.228Z,0.70
2023-04-06T02:34:26.333Z,0.80
2023-04-06T02:36:51.003Z,0.70
2023-04-06T02:39:14.635Z,0.70
2023-04-06T02:41:38.514Z,0.60
2023-04-06T02:44:05.524Z,0.70
2023-04-06T02:46:36.202Z,0.70
2023-04-06T02:49:01.498Z,0.70
2023-04-06T02:51:27.909Z,0.60
2023-04-06T02:53:56.393Z,0.50
2023-04-06T02:56:21.925Z,0.50
2023-04-06T02:58:47.786Z,0.60
2023-04-06T03:01:12.877Z,0.60
2023-04-06T03:03:38.177Z,0.60
2023-04-06T03:06:06.743Z,0.60
2023-04-06T03:08:30.843Z,0.60
2023-04-06T03:10:54.896Z,0.50
2023-04-06T03:13:18.909Z,0.50
2023-04-06T03:15:46.008Z,0.50
2023-04-06T03:18:14.709Z,0.50
2023-04-06T03:20:42.969Z,0.50
2023-04-06T03:23:07.249Z,0.50
2023-04-06T03:25:35.259Z,0.50
2023-04-06T03:28:01.766Z,0.40
2023-04-06T03:30:25.631Z,0.50
2023-04-06T03:32:49.122Z,0.50
2023-04-06T03:35:14.724Z,0.40
2023-04-06T03:37:38.260Z,0.40
2023-04-06T03:40:02.418Z,0.40
2023-04-06T03:42:27.768Z,0.40
2023-04-06T03:44:56.309Z,0.50
2023-04-06T03:47:20.121Z,0.50
2023-04-06T03:49:43.576Z,0.40
2023-04-06T03:52:10.782Z,0.40
2023-04-06T03:54:34.218Z,0.40
2023-04-06T03:56:57.595Z,0.40
2023-04-06T03:59:23.933Z,0.40
2023-04-06T04:01:50.123Z,0.40
2023-04-06T04:04:13.584Z,0.40
2023-04-06T04:06:37.454Z,0.40
2023-04-06T04:09:02.339Z,0.30
2023-04-06T04:11:25.694Z,0.40
2023-04-06T04:13:54.664Z,0.30
2023-04-06T04:16:18.149Z,0.40
2023-04-06T04:18:41.565Z,0.30
2023-04-06T04:21:05.584Z,0.40
2023-04-06T04:23:28.993Z,0.30
2023-04-06T04:25:53.925Z,0.30
2023-04-06T04:28:17.577Z,0.30
2023-04-06T04:30:42.124Z,0.30
2023-04-06T04:33:08.137Z,0.30
2023-04-06T04:35:31.644Z,0.40
2023-04-06T04:37:55.816Z,0.40
2023-04-06T04:40:19.495Z,0.40
2023-04-06T04:43:01.681Z,0.50
2023-04-06T04:45:28.654Z,0.50
2023-04-06T04:47:52.855Z,0.50
2023-04-06T04:50:18.444Z,0.50
2023-04-06T04:52:44.373Z,0.60
2023-04-06T04:55:18.495Z,0.50
2023-04-06T04:57:44.779Z,0.60
2023-04-06T05:00:11.831Z,0.60
2023-04-06T05:02:38.563Z,0.60
2023-04-06T05:05:15.969Z,0.70
2023-04-06T05:07:40.042Z,0.70
2023-04-06T05:10:08.185Z,0.80
2023-04-06T05:12:39.123Z,0.70
2023-04-06T05:15:05.686Z,0.80
2023-04-06T05:17:30.795Z,0.90
2023-04-06T05:19:54.340Z,0.90
2023-04-06T05:22:21.110Z,1.00
2023-04-06T05:24:52.206Z,1.00
2023-04-06T05:27:16.118Z,1.00
2023-04-06T05:29:39.653Z,1.10
2023-04-06T05:32:03.709Z,1.10
2023-04-06T05:34:29.245Z,1.20
2023-04-06T05:36:53.632Z,1.30
2023-04-06T05:39:21.383Z,1.30
2023-04-06T05:41:47.363Z,1.50
2023-04-06T05:44:12.334Z,1.50
2023-04-06T05:46:38.670Z,1.70
2023-04-06T05:49:06.234Z,1.70
2023-04-06T05:51:33.029Z,1.90
2023-04-06T05:53:57.153Z,2.00
2023-04-06T05:56:21.395Z,2.10
2023-04-06T05:58:45.060Z,2.00
2023-04-06T06:01:11.509Z,2.10
2023-04-06T06:03:39.392Z,2.20
2023-04-06T06:06:05.518Z,2.30
2023-04-06T06:08:49.157Z,2.50
2023-04-06T06:11:14.569Z,2.60
2023-04-06T06:13:38.621Z,2.80
2023-04-06T06:16:06.081Z,2.80
2023-04-06T06:18:32.497Z,2.90
2023-04-06T06:20:56.174Z,3.00
2023-04-06T06:23:19.748Z,3.10
2023-04-06T06:25:45.531Z,3.40
2023-04-06T06:28:09.043Z,3.50
2023-04-06T06:30:33.014Z,3.70
2023-04-06T06:32:57.379Z,4.00
2023-04-06T06:35:21.632Z,4.40
2023-04-06T06:37:45.795Z,4.60
2023-04-06T06:40:14.197Z,4.90
2023-04-06T06:42:40.655Z,5.10
2023-04-06T06:45:28.474Z,5.00
2023-04-06T06:47:54.890Z,5.10
2023-04-06T06:50:19.364Z,5.40
2023-04-06T06:52:43.369Z,5.80
2023-04-06T06:55:07.769Z,6.00
2023-04-06T06:57:32.621Z,6.20
2023-04-06T06:59:57.801Z,6.30
2023-04-06T07:02:21.340Z,6.50
2023-04-06T07:04:45.038Z,6.30
2023-04-06T07:07:09.429Z,6.60
2023-04-06T07:09:33.288Z,7.00
2023-04-06T07:11:57.757Z,6.50
2023-04-06T07:14:21.836Z,6.90
2023-04-06T07:16:48.041Z,7.00
2023-04-06T07:19:12.340Z,6.90
2023-04-06T07:21:36.357Z,6.70
2023-04-06T07:23:59.934Z,6.80
2023-04-06T07:26:23.388Z,7.10
2023-04-06T07:28:46.784Z,7.50
2023-04-06T07:31:11.257Z,7.80
2023-04-06T07:33:36.106Z,8.30
2023-04-06T07:36:00.587Z,8.20
2023-04-06T07:38:24.205Z,8.30
2023-04-06T07:40:48.649Z,8.60
2023-04-06T07:43:12.245Z,8.20
2023-04-06T07:45:35.803Z,8.00
2023-04-06T07:47:59.502Z,8.50
2023-04-06T07:50:26.277Z,8.20
2023-04-06T07:52:50.692Z,8.00
2023-04-06T07:55:14.331Z,8.10
2023-04-06T07:57:37.772Z,8.40
2023-04-06T08:00:01.733Z,8.50
2023-04-06T08:02:36.044Z,8.10
2023-04-06T08:04:59.701Z,8.20
2023-04-06T08:07:24.560Z,8.10
2023-04-06T08:09:48.008Z,8.40
2023-04-06T08:12:11.501Z,8.60
2023-04-06T08:14:35.016Z,8.50
2023-04-06T08:16:58.640Z,8.10
2023-04-06T08:19:22.201Z,8.90
2023-04-06T08:21:46.849Z,8.90
2023-04-06T08:24:11.661Z,9.10
2023-04-06T08:26:35.179Z,9.60
2023-04-06T08:28:58.716Z,9.60
2023-04-06T08:31:22.410Z,9.00
2023-04-06T08:33:46.295Z,8.80
2023-04-06T08:36:12.408Z,9.20
2023-04-06T08:38:35.854Z,9.80
2023-04-06T08:41:01.002Z,9.70
2023-04-06T08:43:26.000Z,10.20
2023-04-06T08:45:49.700Z,10.20
2023-04-06T08:48:14.726Z,10.50
2023-04-06T08:50:38.395Z,9.90
2023-04-06T08:53:02.199Z,10.50
2023-04-06T08:55:26.053Z,10.00
2023-04-06T08:57:51.245Z,10.00
2023-04-06T09:00:16.886Z,10.00
2023-04-06T09:02:42.989Z,9.40
2023-04-06T09:05:09.609Z,9.30
2023-04-06T09:07:33.120Z,9.70
2023-04-06T09:09:56.720Z,10.00
2023-04-06T09:12:27.962Z,9.60
2023-04-06T09:14:52.788Z,9.70
2023-04-06T09:17:23.312Z,10.20
2023-04-06T09:19:49.875Z,10.00
2023-04-06T09:22:13.277Z,10.10
2023-04-06T09:24:44.567Z,10.20
2023-04-06T09:27:07.892Z,10.30
2023-04-06T09:29:31.327Z,10.40
2023-04-06T09:32:05.744Z,10.40
2023-04-06T09:34:29.174Z,10.70
2023-04-06T09:36:53.110Z,10.90
2023-04-06T09:39:16.756Z,10.80
2023-04-06T09:41:40.606Z,11.00
2023-04-06T09:44:10.310Z,11.10
2023-04-06T09:46:50.655Z,11.20
2023-04-06T09:49:21.485Z,10.90
2023-04-06T09:51:49.553Z,11.10
2023-04-06T09:54:18.122Z,11.60
2023-04-06T09:56:48.344Z,10.90
2023-04-06T09:59:20.429Z,11.20
2023-04-06T10:01:44.165Z,11.50
2023-04-06T10:04:26.673Z,11.60
2023-04-06T10:06:53.376Z,11.50
2023-04-06T10:09:17.616Z,11.50
2023-04-06T10:11:41.610Z,11.20
2023-04-06T10:14:05.296Z,11.50
2023-04-06T10:16:30.335Z,11.50
2023-04-06T10:18:59.980Z,11.30
2023-04-06T10:21:28.345Z,11.60
2023-04-06T10:23:55.450Z,11.60
2023-04-06T10:26:22.240Z,12.00
2023-04-06T10:28:47.783Z,12.10
2023-04-06T10:31:11.273Z,11.80
2023-04-06T10:33:35.024Z,12.20
2023-04-06T10:35:58.768Z,12.20
2023-04-06T10:38:25.267Z,12.70
2023-04-06T10:40:49.225Z,12.50
2023-04-06T10:43:15.322Z,12.70
2023-04-06T10:45:39.234Z,12.10
2023-04-06T10:48:02.793Z,11.80
2023-04-06T10:50:27.066Z,11.90
2023-04-06T10:53:01.760Z,11.80
2023-04-06T10:55:29.358Z,12.20
2023-04-06T10:57:53.923Z,12.50
2023-04-06T11:00:18.773Z,12.50
2023-04-06T11:02:42.526Z,12.20
2023-04-06T11:05:07.589Z,11.70
2023-04-06T11:07:31.418Z,11.60
2023-04-06T11:10:12.316Z,11.60
2023-04-06T11:12:39.157Z,12.00
2023-04-06T11:15:05.378Z,12.10
2023-04-06T11:17:29.684Z,12.30
2023-04-06T11:19:53.222Z,12.30
2023-04-06T11:22:17.467Z,12.40
2023-04-06T11:24:40.977Z,12.50
2023-04-06T11:27:05.393Z,12.00
2023-04-06T11:29:32.604Z,11.80
2023-04-06T11:32:01.726Z,12.20
2023-04-06T11:34:27.136Z,12.40
2023-04-06T11:36:56.044Z,12.60
2023-04-06T11:39:22.783Z,12.90
2023-04-06T11:41:50.401Z,12.50
2023-04-06T11:44:13.860Z,12.60
2023-04-06T11:46:39.684Z,12.60
2023-04-06T11:49:04.293Z,12.60
2023-04-06T11:51:28.654Z,11.70
2023-04-06T11:53:52.629Z,12.00
2023-04-06T11:56:29.832Z,12.30
2023-04-06T11:58:53.809Z,12.20
2023-04-06T12:01:17.269Z,11.90
2023-04-06T12:03:42.157Z,12.40
2023-04-06T12:06:06.254Z,12.10
2023-04-06T12:08:29.652Z,12.20
2023-04-06T12:10:53.090Z,12.20
2023-04-06T12:13:16.592Z,12.40
2023-04-06T12:15:39.985Z,12.30
2023-04-06T12:18:03.605Z,12.20
2023-04-06T12:20:28.462Z,12.10
2023-04-06T12:22:52.149Z,12.00
2023-04-06T12:25:15.735Z,12.30
2023-04-06T12:27:39.569Z,12.20
2023-04-06T12:30:03.574Z,12.20
2023-04-06T12:32:27.273Z,12.40
2023-04-06T12:34:51.050Z,12.30
2023-04-06T12:37:16.067Z,12.10
2023-04-06T12:39:39.548Z,11.80
2023-04-06T12:42:03.653Z,12.30
2023-04-06T12:44:27.344Z,12.50
2023-04-06T12:46:51.251Z,12.30
2023-04-06T12:49:14.755Z,12.30
2023-04-06T12:51:38.179Z,12.00
2023-04-06T12:54:02.946Z,11.90
2023-04-06T12:56:26.841Z,12.00
2023-04-06T12:58:50.947Z,12.20
2023-04-06T13:01:14.906Z,11.60
2023-04-06T13:03:38.385Z,12.00
2023-04-06T13:06:03.209Z,12.20
2023-04-06T13:08:26.785Z,12.20
2023-04-06T13:10:54.004Z,11.90
2023-04-06T13:13:17.657Z,11.80
2023-04-06T13:15:41.214Z,11.60
2023-04-06T13:18:04.871Z,11.40
2023-04-06T13:20:28.792Z,11.60
2023-04-06T13:22:52.298Z,11.40
2023-04-06T13:25:15.965Z,10.90
2023-04-06T13:27:40.879Z,11.30
2023-04-06T13:30:06.082Z,11.10
2023-04-06T13:32:29.800Z,11.00
2023-04-06T13:34:56.748Z,11.00
2023-04-06T13:37:20.253Z,10.90
2023-04-06T13:39:43.790Z,10.80
2023-04-06T13:42:07.674Z,10.40
2023-04-06T13:44:32.587Z,10.50
2023-04-06T13:46:56.171Z,10.50
2023-04-06T13:49:19.706Z,10.50
2023-04-06T13:51:43.466Z,10.60
2023-04-06T13:54:07.149Z,10.50
2023-04-06T13:56:30.586Z,10.50
2023-04-06T13:58:57.066Z,10.60
2023-04-06T14:01:21.880Z,10.60
2023-04-06T14:03:48.454Z,10.50
2023-04-06T14:06:20.874Z,10.90
2023-04-06T14:08:53.692Z,10.90
2023-04-06T14:11:17.391Z,10.70
2023-04-06T14:13:40.743Z,10.50
2023-04-06T14:16:04.093Z,10.50
2023-04-06T14:18:31.962Z,10.70
2023-04-06T14:20:59.789Z,10.50
2023-04-06T14:23:23.163Z,10.20
2023-04-06T14:25:46.423Z,10.20
2023-04-06T14:28:09.699Z,10.10
2023-04-06T14:30:33.436Z,10.00
2023-04-06T14:33:00.096Z,10.00
2023-04-06T14:35:25.875Z,10.00
2023-04-06T14:37:49.225Z,10.00
2023-04-06T14:40:13.950Z,9.80
2023-04-06T14:42:38.749Z,9.70
2023-04-06T14:45:02.140Z,10.00
2023-04-06T14:47:25.994Z,9.80
2023-04-06T14:49:49.335Z,9.60
2023-04-06T14:52:14.069Z,9.70
2023-04-06T14:54:37.404Z,9.60
2023-04-06T14:57:01.562Z,9.50
2023-04-06T14:59:24.854Z,9.60
2023-04-06T15:01:48.380Z,9.60
2023-04-06T15:04:11.739Z,9.40
2023-04-06T15:06:35.304Z,9.50
2023-04-06T15:09:00.424Z,9.50
2023-04-06T15:11:24.289Z,9.30
2023-04-06T15:13:48.009Z,9.40
2023-04-06T15:16:11.618Z,9.20
2023-04-06T15:18:35.465Z,9.20
2023-04-06T15:20:58.840Z,9.20
2023-04-06T15:23:22.301Z,9.30
2023-04-06T15:25:47.081Z,9.30
2023-04-06T15:28:10.461Z,9.10
2023-04-06T15:30:33.929Z,9.20
2023-04-06T15:33:01.581Z,9.20
2023-04-06T15:35:26.496Z,9.10
2023-04-06T15:37:50.570Z,9.20
2023-04-06T15:40:16.662Z,9.10
2023-04-06T15:42:43.251Z,9.10
2023-04-06T15:45:08.107Z,9.00
2023-04-06T15:47:31.467Z,9.10
2023-04-06T15:49:54.717Z,9.00
2023-04-06T15:52:18.299Z,8.80
2023-04-06T15:54:42.018Z,8.80
2023-04-06T15:57:05.346Z,8.90
2023-04-06T15:59:29.907Z,8.80
2023-04-06T16:01:54.099Z,8.70
2023-04-06T16:04:17.529Z,8.60
2023-04-06T16:06:41.208Z,8.50
2023-04-06T16:09:05.180Z,8.50
2023-04-06T16:11:28.666Z,8.50
2023-04-06T16:13:55.096Z,8.60
2023-04-06T16:16:20.773Z,8.50
2023-04-06T16:18:44.054Z,8.50
2023-04-06T16:21:07.438Z,8.60
2023-04-06T16:23:31.328Z,8.50
2023-04-06T16:25:57.650Z,8.50
2023-04-06T16:28:21.442Z,8.50
2023-04-06T16:30:46.707Z,8.50
2023-04-06T16:33:11.865Z,8.40
2023-04-06T16:35:35.172Z,8.40
2023-04-06T16:37:58.523Z,8.30
2023-04-06T16:40:22.021Z,8.40
2023-04-06T16:42:46.305Z,8.30
2023-04-06T16:45:11.348Z,8.30
2023-04-06T16:47:34.915Z,8.20
2023-04-06T16:50:04.879Z,8.20
2023-04-06T16:52:29.640Z,8.20
2023-04-06T16:54:52.879Z,8.20
2023-04-06T16:57:16.151Z,8.10
2023-04-06T16:59:40.155Z,8.00
2023-04-06T17:02:03.533Z,8.10
2023-04-06T17:04:26.972Z,8.00
2023-04-06T17:06:51.824Z,8.00
2023-04-06T17:09:15.772Z,8.00
2023-04-06T17:11:46.637Z,8.00
2023-04-06T17:14:11.175Z,8.00
2023-04-06T17:16:34.471Z,7.90
2023-04-06T17:18:58.274Z,7.90
2023-04-06T17:21:21.625Z,7.90
2023-04-06T17:23:46.428Z,8.00
2023-04-06T17:26:09.929Z,8.00
2023-04-06T17:28:33.299Z,7.90
2023-04-06T17:30:56.694Z,7.80
2023-04-06T17:33:20.065Z,7.90
2023-04-06T17:35:43.491Z,7.90
2023-04-06T17:38:08.160Z,7.90
2023-04-06T17:40:32.940Z,7.90
2023-04-06T17:42:56.222Z,7.90
2023-04-06T17:45:19.711Z,7.80
2023-04-06T17:47:43.039Z,7.90
2023-04-06T17:50:08.079Z,7.90
2023-04-06T17:52:31.954Z,7.80
2023-04-06T17:54:56.441Z,7.80
2023-04-06T17:57:21.745Z,7.80
2023-04-06T17:59:46.106Z,7.80
2023-04-06T18:02:09.746Z,7.80
2023-04-06T18:04:33.153Z,7.80
2023-04-06T18:06:56.554Z,7.80
2023-04-06T18:09:19.828Z,7.80
2023-04-06T18:11:43.527Z,7.80
2023-04-06T18:14:11.011Z,7.80
2023-04-06T18:16:34.503Z,7.80
2023-04-06T18:18:58.170Z,7.80
2023-04-06T18:21:21.558Z,7.80
2023-04-06T18:23:44.880Z,7.80
2023-04-06T18:26:08.517Z,7.70
2023-04-06T18:28:32.225Z,7.70
2023-04-06T18:30:57.088Z,7.70
2023-04-06T18:33:20.644Z,7.70
2023-04-06T18:35:43.922Z,7.70
2023-04-06T18:38:07.230Z,7.60
2023-04-06T18:40:35.209Z,7.60
2023-04-06T18:42:58.682Z,7.70
2023-04-06T18:45:23.646Z,7.70
2023-04-06T18:47:48.352Z,7.60
2023-04-06T18:50:12.453Z,7.60
2023-04-06T18:52:35.979Z,7.60
2023-04-06T18:54:59.313Z,7.60
2023-04-06T18:57:22.662Z,7.60
2023-04-06T18:59:45.938Z,7.60
2023-04-06T19:02:09.341Z,7.50
2023-04-06T19:04:34.301Z,7.50
2023-04-06T19:06:57.911Z,7.60
2023-04-06T19:09:21.812Z,7.60
2023-04-06T19:11:45.043Z,7.50
2023-04-06T19:14:08.417Z,7.60
2023-04-06T19:16:31.719Z,7.60
2023-04-06T19:18:55.027Z,7.60
2023-04-06T19:21:21.548Z,7.60
2023-04-06T19:23:45.696Z,7.60
2023-04-06T19:26:12.079Z,7.60
2023-04-06T19:28:35.694Z,7.50
2023-04-06T19:31:00.200Z,7.50
2023-04-06T19:33:23.514Z,7.50
2023-04-06T19:35:46.984Z,7.50
2023-04-06T19:38:11.788Z,7.50
2023-04-06T19:40:35.077Z,7.50
2023-04-06T19:42:58.346Z,7.50
2023-04-06T19:45:21.718Z,7.50
2023-04-06T19:47:45.123Z,7.50
2023-04-06T19:50:11.235Z,7.50
2023-04-06T19:52:34.630Z,7.50
2023-04-06T19:54:59.989Z,7.50
2023-04-06T19:57:23.378Z,7.50
2023-04-06T19:59:46.782Z,7.50
2023-04-06T20:02:10.405Z,7.50
2023-04-06T20:04:34.178Z,7.50
2023-04-06T20:06:58.206Z,7.40
2023-04-06T20:09:22.261Z,7.40
2023-04-06T20:11:47.409Z,7.40
2023-04-06T20:14:10.948Z,7.40
2023-04-06T20:16:34.342Z,7.40
2023-04-06T20:18:57.633Z,7.30
2023-04-06T20:21:20.966Z,7.40
2023-04-06T20:23:44.220Z,7.30
2023-04-06T20:26:10.433Z,7.30
2023-04-06T20:28:35.608Z,7.30
2023-04-06T20:30:58.859Z,7.30
2023-04-06T20:33:22.229Z,7.30
2023-04-06T20:35:45.767Z,7.30
2023-04-06T20:38:09.097Z,7.20
2023-04-06T20:40:32.376Z,7.30
2023-04-06T20:42:57.331Z,7.30
2023-04-06T20:45:22.821Z,7.30
2023-04-06T20:47:46.285Z,7.30
2023-04-06T20:50:10.728Z,7.30
2023-04-06T20:52:34.698Z,7.30
2023-04-06T20:54:57.987Z,7.20
2023-04-06T20:57:21.437Z,7.30
2023-04-06T20:59:45.084Z,7.30
2023-04-06T21:02:10.099Z,7.30
2023-04-06T21:04:35.925Z,7.30
2023-04-06T21:06:59.412Z,7.30
2023-04-06T21:09:24.839Z,7.40
2023-04-06T21:11:48.158Z,7.30
2023-04-06T21:14:11.612Z,7.30
2023-04-06T21:16:35.045Z,7.20
2023-04-06T21:18:59.709Z,7.30
2023-04-06T21:21:23.014Z,7.30
2023-04-06T21:23:46.363Z,7.30
2023-04-06T21:26:09.672Z,7.20
2023-04-06T21:28:33.440Z,7.30
2023-04-06T21:30:57.394Z,7.40
2023-04-06T21:33:20.956Z,7.20
2023-04-06T21:35:45.693Z,7.30
2023-04-06T21:38:09.388Z,7.30
2023-04-06T21:40:33.088Z,7.30
2023-04-06T21:42:56.329Z,7.20
2023-04-06T21:45:19.590Z,7.30
2023-04-06T21:47:42.956Z,7.20
2023-04-06T21:50:07.567Z,7.30
2023-04-06T21:52:32.202Z,7.30
2023-04-06T21:54:55.590Z,7.40
2023-04-06T21:57:18.881Z,7.30
2023-04-06T21:59:42.096Z,7.30
2023-04-06T22:02:05.720Z,7.30
2023-04-06T22:04:29.170Z,7.30
2023-04-06T22:06:52.543Z,7.40
2023-04-06T22:09:17.165Z,7.30
2023-04-06T22:11:40.672Z,7.40
2023-04-06T22:14:04.256Z,7.40
2023-04-06T22:16:27.741Z,7.40
2023-04-06T22:18:51.285Z,7.50
2023-04-06T22:21:14.590Z,7.40
2023-04-06T22:23:42.031Z,7.50
2023-04-06T22:26:06.971Z,7.50
2023-04-06T22:28:30.478Z,7.50
2023-04-06T22:30:53.807Z,7.50
2023-04-06T22:33:17.122Z,7.50
2023-04-06T22:35:40.407Z,7.40
2023-04-06T22:38:03.697Z,7.50
2023-04-06T22:40:27.232Z,7.50
2023-04-06T22:42:51.852Z,7.50
2023-04-06T22:45:15.127Z,7.50
2023-04-06T22:47:38.566Z,7.50
2023-04-06T22:50:02.413Z,7.50
2023-04-06T22:52:25.807Z,7.50
2023-04-06T22:54:49.326Z,7.50
2023-04-06T22:57:12.616Z,7.50
2023-04-06T22:59:37.275Z,7.50
2023-04-06T23:02:00.673Z,7.60
2023-04-06T23:04:24.091Z,7.50
2023-04-06T23:06:47.446Z,7.60
2023-04-06T23:09:10.699Z,7.60
2023-04-06T23:11:34.476Z,7.60
2023-04-06T23:13:57.720Z,7.60
2023-04-06T23:16:22.815Z,7.60
2023-04-06T23:18:46.071Z,7.60
2023-04-06T23:21:09.578Z,7.70
2023-04-06T23:23:33.036Z,7.60
2023-04-06T23:25:56.316Z,7.60
2023-04-06T23:28:19.587Z,7.60
2023-04-06T23:30:42.873Z,7.70
2023-04-06T23:33:07.563Z,7.60
2023-04-06T23:35:31.148Z,7.70
2023-04-06T23:37:54.386Z,7.70
2023-04-06T23:40:18.434Z,7.80
2023-04-06T23:42:41.720Z,7.80
2023-04-06T23:45:06.733Z,7.80
2023-04-06T23:47:30.283Z,7.80
2023-04-06T23:49:56.324Z,7.80
2023-04-06T23:52:19.754Z,7.80
2023-04-06T23:54:43.068Z,7.80
2023-04-06T23:57:06.442Z,7.80
2023-04-06T23:59:29.952Z,7.80
